sensor_id;sensor_type;location;lat;lon;timestamp;P1;durP1;ratioP1;P2;durP2;ratioP2
12956;SDS011;6543;48.836;10.092;2023-06-22T00:00:11;8.80;;;7.57;;
12956;SDS011;6543;48.836;10.092;2023-06-22T00:02:38;10.85;;;7.47;;
12956;SDS011;6543;48.836;10.092;2023-06-22T00:05:05;11.10;;;7.38;;
12956;SDS011;6543;48.836;10.092;2023-06-22T00:07:32;10.18;;;7.05;;
12956;SDS011;6543;48.836;10.092;2023-06-22T00:10:00;10.45;;;7.38;;
12956;SDS011;6543;48.836;10.092;2023-06-22T00:12:27;10.90;;;7.25;;
12956;SDS011;6543;48.836;10.092;2023-06-22T00:14:54;11.73;;;7.03;;
12956;SDS011;6543;48.836;10.092;2023-06-22T00:17:21;9.35;;;6.60;;
12956;SDS011;6543;48.836;10.092;2023-06-22T00:19:47;9.07;;;7.03;;
12956;SDS011;6543;48.836;10.092;2023-06-22T00:22:18;8.80;;;7.47;;
12956;SDS011;6543;48.836;10.092;2023-06-22T00:24:53;8.65;;;6.80;;
12956;SDS011;6543;48.836;10.092;2023-06-22T00:27:21;7.80;;;6.63;;
12956;SDS011;6543;48.836;10.092;2023-06-22T00:29:47;9.98;;;7.20;;
12956;SDS011;6543;48.836;10.092;2023-06-22T00:32:14;8.65;;;6.38;;
12956;SDS011;6543;48.836;10.092;2023-06-22T00:34:42;11.43;;;7.05;;
12956;SDS011;6543;48.836;10.092;2023-06-22T00:37:09;9.30;;;6.85;;
12956;SDS011;6543;48.836;10.092;2023-06-22T00:39:36;10.05;;;7.80;;
12956;SDS011;6543;48.836;10.092;2023-06-22T00:42:03;7.43;;;6.68;;
12956;SDS011;6543;48.836;10.092;2023-06-22T00:44:32;11.27;;;7.85;;
12956;SDS011;6543;48.836;10.092;2023-06-22T00:46:59;9.75;;;7.13;;
12956;SDS011;6543;48.836;10.092;2023-06-22T00:49:28;12.88;;;7.15;;
12956;SDS011;6543;48.836;10.092;2023-06-22T00:51:55;11.05;;;7.95;;
12956;SDS011;6543;48.836;10.092;2023-06-22T00:54:24;7.63;;;6.40;;
12956;SDS011;6543;48.836;10.092;2023-06-22T00:56:51;9.00;;;7.70;;
12956;SDS011;6543;48.836;10.092;2023-06-22T00:59:19;9.55;;;7.07;;
12956;SDS011;6543;48.836;10.092;2023-06-22T01:01:47;11.82;;;7.28;;
12956;SDS011;6543;48.836;10.092;2023-06-22T01:04:14;8.38;;;7.13;;
12956;SDS011;6543;48.836;10.092;2023-06-22T01:06:43;10.23;;;7.55;;
12956;SDS011;6543;48.836;10.092;2023-06-22T01:09:18;8.43;;;7.10;;
12956;SDS011;6543;48.836;10.092;2023-06-22T01:11:49;10.20;;;6.88;;
12956;SDS011;6543;48.836;10.092;2023-06-22T01:14:21;12.30;;;6.97;;
12956;SDS011;6543;48.836;10.092;2023-06-22T01:16:55;7.43;;;6.78;;
12956;SDS011;6543;48.836;10.092;2023-06-22T01:19:29;12.57;;;8.00;;
12956;SDS011;6543;48.836;10.092;2023-06-22T01:22:04;10.65;;;7.88;;
12956;SDS011;6543;48.836;10.092;2023-06-22T01:24:41;9.48;;;7.38;;
12956;SDS011;6543;48.836;10.092;2023-06-22T01:27:15;15.55;;;7.47;;
12956;SDS011;6543;48.836;10.092;2023-06-22T01:29:51;10.68;;;7.15;;
12956;SDS011;6543;48.836;10.092;2023-06-22T01:32:25;7.72;;;6.95;;
12956;SDS011;6543;48.836;10.092;2023-06-22T01:34:53;9.57;;;6.82;;
12956;SDS011;6543;48.836;10.092;2023-06-22T01:37:21;6.85;;;6.15;;
12956;SDS011;6543;48.836;10.092;2023-06-22T01:39:47;11.13;;;6.82;;
12956;SDS011;6543;48.836;10.092;2023-06-22T01:42:15;8.18;;;6.82;;
12956;SDS011;6543;48.836;10.092;2023-06-22T01:44:43;12.70;;;6.50;;
12956;SDS011;6543;48.836;10.092;2023-06-22T01:47:11;9.70;;;6.70;;
12956;SDS011;6543;48.836;10.092;2023-06-22T01:49:39;8.40;;;6.78;;
12956;SDS011;6543;48.836;10.092;2023-06-22T01:52:06;8.45;;;6.45;;
12956;SDS011;6543;48.836;10.092;2023-06-22T01:54:33;9.85;;;6.68;;
12956;SDS011;6543;48.836;10.092;2023-06-22T01:57:00;6.25;;;5.72;;
12956;SDS011;6543;48.836;10.092;2023-06-22T01:59:28;9.55;;;6.95;;
12956;SDS011;6543;48.836;10.092;2023-06-22T02:01:59;9.55;;;7.18;;
12956;SDS011;6543;48.836;10.092;2023-06-22T02:04:32;8.73;;;6.78;;
12956;SDS011;6543;48.836;10.092;2023-06-22T02:07:03;9.73;;;6.75;;
12956;SDS011;6543;48.836;10.092;2023-06-22T02:09:35;8.40;;;6.72;;
12956;SDS011;6543;48.836;10.092;2023-06-22T02:12:05;10.50;;;7.47;;
12956;SDS011;6543;48.836;10.092;2023-06-22T02:14:34;10.57;;;7.32;;
12956;SDS011;6543;48.836;10.092;2023-06-22T02:17:01;7.90;;;7.10;;
12956;SDS011;6543;48.836;10.092;2023-06-22T02:19:31;10.98;;;7.63;;
12956;SDS011;6543;48.836;10.092;2023-06-22T02:21:58;9.23;;;6.72;;
12956;SDS011;6543;48.836;10.092;2023-06-22T02:24:25;8.75;;;7.78;;
12956;SDS011;6543;48.836;10.092;2023-06-22T02:26:51;9.07;;;8.18;;
12956;SDS011;6543;48.836;10.092;2023-06-22T02:29:18;10.65;;;7.75;;
12956;SDS011;6543;48.836;10.092;2023-06-22T02:31:45;8.50;;;7.45;;
12956;SDS011;6543;48.836;10.092;2023-06-22T02:34:12;9.05;;;8.15;;
12956;SDS011;6543;48.836;10.092;2023-06-22T02:36:44;9.10;;;7.63;;
12956;SDS011;6543;48.836;10.092;2023-06-22T02:39:15;9.90;;;8.88;;
12956;SDS011;6543;48.836;10.092;2023-06-22T02:41:43;8.85;;;7.95;;
12956;SDS011;6543;48.836;10.092;2023-06-22T02:44:10;11.07;;;8.25;;
12956;SDS011;6543;48.836;10.092;2023-06-22T02:46:37;10.40;;;8.90;;
12956;SDS011;6543;48.836;10.092;2023-06-22T02:49:04;11.88;;;8.75;;
12956;SDS011;6543;48.836;10.092;2023-06-22T02:51:32;9.50;;;8.50;;
12956;SDS011;6543;48.836;10.092;2023-06-22T02:54:02;10.07;;;8.57;;
12956;SDS011;6543;48.836;10.092;2023-06-22T02:56:29;11.53;;;8.80;;
12956;SDS011;6543;48.836;10.092;2023-06-22T02:58:55;15.75;;;8.98;;
12956;SDS011;6543;48.836;10.092;2023-06-22T03:01:25;10.50;;;9.40;;
12956;SDS011;6543;48.836;10.092;2023-06-22T03:03:53;10.40;;;9.30;;
12956;SDS011;6543;48.836;10.092;2023-06-22T03:06:20;13.10;;;9.27;;
12956;SDS011;6543;48.836;10.092;2023-06-22T03:08:48;12.40;;;9.45;;
12956;SDS011;6543;48.836;10.092;2023-06-22T03:11:16;12.35;;;10.15;;
12956;SDS011;6543;48.836;10.092;2023-06-22T03:13:43;14.98;;;10.98;;
12956;SDS011;6543;48.836;10.092;2023-06-22T03:16:11;14.13;;;11.38;;
12956;SDS011;6543;48.836;10.092;2023-06-22T03:18:38;12.47;;;11.27;;
12956;SDS011;6543;48.836;10.092;2023-06-22T03:21:05;15.25;;;11.35;;
12956;SDS011;6543;48.836;10.092;2023-06-22T03:23:31;14.93;;;11.63;;
12956;SDS011;6543;48.836;10.092;2023-06-22T03:25:58;12.73;;;10.73;;
12956;SDS011;6543;48.836;10.092;2023-06-22T03:28:26;14.95;;;10.65;;
12956;SDS011;6543;48.836;10.092;2023-06-22T03:30:53;13.73;;;11.73;;
12956;SDS011;6543;48.836;10.092;2023-06-22T03:33:20;16.70;;;11.85;;
12956;SDS011;6543;48.836;10.092;2023-06-22T03:35:47;17.50;;;12.05;;
12956;SDS011;6543;48.836;10.092;2023-06-22T03:38:14;16.43;;;13.17;;
12956;SDS011;6543;48.836;10.092;2023-06-22T03:40:40;15.13;;;12.32;;
12956;SDS011;6543;48.836;10.092;2023-06-22T03:43:07;13.00;;;11.60;;
12956;SDS011;6543;48.836;10.092;2023-06-22T03:45:35;15.10;;;12.20;;
12956;SDS011;6543;48.836;10.092;2023-06-22T03:48:02;13.93;;;11.60;;
12956;SDS011;6543;48.836;10.092;2023-06-22T03:50:29;14.17;;;12.00;;
12956;SDS011;6543;48.836;10.092;2023-06-22T03:52:56;14.50;;;10.82;;
12956;SDS011;6543;48.836;10.092;2023-06-22T03:55:23;10.20;;;9.20;;
12956;SDS011;6543;48.836;10.092;2023-06-22T03:57:50;12.37;;;8.13;;
12956;SDS011;6543;48.836;10.092;2023-06-22T04:00:18;10.45;;;7.97;;
12956;SDS011;6543;48.836;10.092;2023-06-22T04:02:46;8.55;;;7.47;;
12956;SDS011;6543;48.836;10.092;2023-06-22T04:05:13;12.52;;;7.63;;
12956;SDS011;6543;48.836;10.092;2023-06-22T04:07:42;7.85;;;7.05;;
12956;SDS011;6543;48.836;10.092;2023-06-22T04:10:09;10.35;;;6.97;;
12956;SDS011;6543;48.836;10.092;2023-06-22T04:12:36;7.53;;;6.82;;
12956;SDS011;6543;48.836;10.092;2023-06-22T04:15:03;8.52;;;6.40;;
12956;SDS011;6543;48.836;10.092;2023-06-22T04:17:30;9.45;;;7.18;;
12956;SDS011;6543;48.836;10.092;2023-06-22T04:19:58;8.98;;;7.15;;
12956;SDS011;6543;48.836;10.092;2023-06-22T04:22:25;8.00;;;5.85;;
12956;SDS011;6543;48.836;10.092;2023-06-22T04:24:52;7.57;;;6.30;;
12956;SDS011;6543;48.836;10.092;2023-06-22T04:27:19;8.15;;;6.32;;
12956;SDS011;6543;48.836;10.092;2023-06-22T04:29:48;7.15;;;6.15;;
12956;SDS011;6543;48.836;10.092;2023-06-22T04:32:16;9.88;;;6.50;;
12956;SDS011;6543;48.836;10.092;2023-06-22T04:34:43;11.02;;;6.40;;
12956;SDS011;6543;48.836;10.092;2023-06-22T04:37:12;8.98;;;6.25;;
12956;SDS011;6543;48.836;10.092;2023-06-22T04:39:40;7.63;;;6.82;;
12956;SDS011;6543;48.836;10.092;2023-06-22T04:42:07;6.68;;;5.95;;
12956;SDS011;6543;48.836;10.092;2023-06-22T04:44:34;8.50;;;6.72;;
12956;SDS011;6543;48.836;10.092;2023-06-22T04:47:01;11.25;;;6.45;;
12956;SDS011;6543;48.836;10.092;2023-06-22T04:49:31;8.07;;;6.75;;
12956;SDS011;6543;48.836;10.092;2023-06-22T04:51:59;7.95;;;6.63;;
12956;SDS011;6543;48.836;10.092;2023-06-22T04:54:28;9.48;;;6.32;;
12956;SDS011;6543;48.836;10.092;2023-06-22T04:56:58;8.23;;;6.55;;
12956;SDS011;6543;48.836;10.092;2023-06-22T04:59:25;8.07;;;6.55;;
12956;SDS011;6543;48.836;10.092;2023-06-22T05:01:53;9.13;;;6.40;;
12956;SDS011;6543;48.836;10.092;2023-06-22T05:04:21;12.60;;;6.97;;
12956;SDS011;6543;48.836;10.092;2023-06-22T05:06:48;8.27;;;5.68;;
12956;SDS011;6543;48.836;10.092;2023-06-22T05:09:15;6.80;;;6.15;;
12956;SDS011;6543;48.836;10.092;2023-06-22T05:11:43;10.63;;;6.38;;
12956;SDS011;6543;48.836;10.092;2023-06-22T05:14:10;7.63;;;5.50;;
12956;SDS011;6543;48.836;10.092;2023-06-22T05:16:37;9.68;;;6.00;;
12956;SDS011;6543;48.836;10.092;2023-06-22T05:19:04;9.70;;;6.47;;
12956;SDS011;6543;48.836;10.092;2023-06-22T05:21:31;10.98;;;6.00;;
12956;SDS011;6543;48.836;10.092;2023-06-22T05:23:58;6.90;;;5.60;;
12956;SDS011;6543;48.836;10.092;2023-06-22T05:26:27;7.97;;;5.88;;
12956;SDS011;6543;48.836;10.092;2023-06-22T05:28:56;10.50;;;6.20;;
12956;SDS011;6543;48.836;10.092;2023-06-22T05:31:23;8.80;;;6.35;;
12956;SDS011;6543;48.836;10.092;2023-06-22T05:33:51;7.90;;;5.88;;
12956;SDS011;6543;48.836;10.092;2023-06-22T05:36:18;7.47;;;5.47;;
12956;SDS011;6543;48.836;10.092;2023-06-22T05:38:46;9.75;;;5.13;;
12956;SDS011;6543;48.836;10.092;2023-06-22T05:41:13;9.60;;;5.95;;
12956;SDS011;6543;48.836;10.092;2023-06-22T05:43:40;5.63;;;5.13;;
12956;SDS011;6543;48.836;10.092;2023-06-22T05:46:08;7.95;;;5.38;;
12956;SDS011;6543;48.836;10.092;2023-06-22T05:48:35;8.18;;;5.63;;
12956;SDS011;6543;48.836;10.092;2023-06-22T05:51:02;11.70;;;5.70;;
12956;SDS011;6543;48.836;10.092;2023-06-22T05:53:29;13.75;;;6.90;;
12956;SDS011;6543;48.836;10.092;2023-06-22T05:55:56;9.50;;;5.77;;
12956;SDS011;6543;48.836;10.092;2023-06-22T05:58:22;8.70;;;5.93;;
12956;SDS011;6543;48.836;10.092;2023-06-22T06:00:49;6.93;;;5.35;;
12956;SDS011;6543;48.836;10.092;2023-06-22T06:03:17;8.60;;;5.72;;
12956;SDS011;6543;48.836;10.092;2023-06-22T06:05:44;5.97;;;4.65;;
12956;SDS011;6543;48.836;10.092;2023-06-22T06:08:11;9.68;;;4.55;;
12956;SDS011;6543;48.836;10.092;2023-06-22T06:10:38;6.25;;;3.92;;
12956;SDS011;6543;48.836;10.092;2023-06-22T06:13:05;7.78;;;4.30;;
12956;SDS011;6543;48.836;10.092;2023-06-22T06:15:32;8.00;;;4.47;;
12956;SDS011;6543;48.836;10.092;2023-06-22T06:18:00;5.75;;;4.18;;
12956;SDS011;6543;48.836;10.092;2023-06-22T06:20:31;5.95;;;4.05;;
12956;SDS011;6543;48.836;10.092;2023-06-22T06:22:58;6.00;;;3.95;;
12956;SDS011;6543;48.836;10.092;2023-06-22T06:25:25;5.70;;;3.80;;
12956;SDS011;6543;48.836;10.092;2023-06-22T06:27:52;5.75;;;3.33;;
12956;SDS011;6543;48.836;10.092;2023-06-22T06:30:20;4.05;;;3.47;;
12956;SDS011;6543;48.836;10.092;2023-06-22T06:32:48;9.98;;;4.05;;
12956;SDS011;6543;48.836;10.092;2023-06-22T06:35:15;8.63;;;4.10;;
12956;SDS011;6543;48.836;10.092;2023-06-22T06:37:44;4.97;;;3.30;;
12956;SDS011;6543;48.836;10.092;2023-06-22T06:40:12;5.63;;;3.22;;
12956;SDS011;6543;48.836;10.092;2023-06-22T06:42:40;8.32;;;2.72;;
12956;SDS011;6543;48.836;10.092;2023-06-22T06:45:10;7.45;;;3.33;;
12956;SDS011;6543;48.836;10.092;2023-06-22T06:47:37;5.55;;;3.00;;
12956;SDS011;6543;48.836;10.092;2023-06-22T06:50:05;7.68;;;3.70;;
12956;SDS011;6543;48.836;10.092;2023-06-22T06:52:32;8.98;;;3.92;;
12956;SDS011;6543;48.836;10.092;2023-06-22T06:55:00;6.18;;;3.63;;
12956;SDS011;6543;48.836;10.092;2023-06-22T06:57:29;4.32;;;3.47;;
12956;SDS011;6543;48.836;10.092;2023-06-22T06:59:58;5.82;;;3.03;;
12956;SDS011;6543;48.836;10.092;2023-06-22T07:02:26;6.15;;;3.53;;
12956;SDS011;6543;48.836;10.092;2023-06-22T07:04:54;5.70;;;3.50;;
12956;SDS011;6543;48.836;10.092;2023-06-22T07:07:22;6.25;;;3.55;;
12956;SDS011;6543;48.836;10.092;2023-06-22T07:09:50;7.60;;;3.13;;
12956;SDS011;6543;48.836;10.092;2023-06-22T07:12:18;5.40;;;3.03;;
12956;SDS011;6543;48.836;10.092;2023-06-22T07:14:45;7.07;;;3.97;;
12956;SDS011;6543;48.836;10.092;2023-06-22T07:17:12;5.20;;;2.85;;
12956;SDS011;6543;48.836;10.092;2023-06-22T07:19:38;5.97;;;3.35;;
12956;SDS011;6543;48.836;10.092;2023-06-22T07:22:07;5.40;;;3.42;;
12956;SDS011;6543;48.836;10.092;2023-06-22T07:24:34;6.60;;;3.20;;
12956;SDS011;6543;48.836;10.092;2023-06-22T07:27:02;6.57;;;3.50;;
12956;SDS011;6543;48.836;10.092;2023-06-22T07:29:33;8.77;;;3.85;;
12956;SDS011;6543;48.836;10.092;2023-06-22T07:32:02;10.25;;;3.83;;
12956;SDS011;6543;48.836;10.092;2023-06-22T07:34:30;12.60;;;3.47;;
12956;SDS011;6543;48.836;10.092;2023-06-22T07:36:58;10.73;;;3.80;;
12956;SDS011;6543;48.836;10.092;2023-06-22T07:39:25;8.75;;;3.88;;
12956;SDS011;6543;48.836;10.092;2023-06-22T07:41:53;11.32;;;3.92;;
12956;SDS011;6543;48.836;10.092;2023-06-22T07:44:20;7.47;;;3.20;;
12956;SDS011;6543;48.836;10.092;2023-06-22T07:46:48;11.18;;;3.35;;
12956;SDS011;6543;48.836;10.092;2023-06-22T07:49:16;7.78;;;3.20;;
12956;SDS011;6543;48.836;10.092;2023-06-22T07:51:43;10.40;;;3.25;;
12956;SDS011;6543;48.836;10.092;2023-06-22T07:54:10;5.60;;;2.95;;
12956;SDS011;6543;48.836;10.092;2023-06-22T07:56:37;5.88;;;3.53;;
12956;SDS011;6543;48.836;10.092;2023-06-22T07:59:04;7.38;;;3.28;;
12956;SDS011;6543;48.836;10.092;2023-06-22T08:01:30;9.80;;;3.58;;
12956;SDS011;6543;48.836;10.092;2023-06-22T08:03:59;6.03;;;3.47;;
12956;SDS011;6543;48.836;10.092;2023-06-22T08:06:25;6.68;;;3.72;;
12956;SDS011;6543;48.836;10.092;2023-06-22T08:08:52;8.85;;;3.80;;
12956;SDS011;6543;48.836;10.092;2023-06-22T08:11:22;9.02;;;2.92;;
12956;SDS011;6543;48.836;10.092;2023-06-22T08:13:50;7.57;;;3.92;;
12956;SDS011;6543;48.836;10.092;2023-06-22T08:16:17;15.88;;;3.65;;
12956;SDS011;6543;48.836;10.092;2023-06-22T08:18:44;7.25;;;4.07;;
12956;SDS011;6543;48.836;10.092;2023-06-22T08:21:12;7.35;;;3.50;;
12956;SDS011;6543;48.836;10.092;2023-06-22T08:23:39;7.10;;;3.10;;
12956;SDS011;6543;48.836;10.092;2023-06-22T08:26:07;5.70;;;3.33;;
12956;SDS011;6543;48.836;10.092;2023-06-22T08:28:34;4.53;;;3.42;;
12956;SDS011;6543;48.836;10.092;2023-06-22T08:31:01;8.98;;;4.28;;
12956;SDS011;6543;48.836;10.092;2023-06-22T08:33:34;8.63;;;3.97;;
12956;SDS011;6543;48.836;10.092;2023-06-22T08:36:01;10.52;;;3.78;;
12956;SDS011;6543;48.836;10.092;2023-06-22T08:38:29;18.83;;;4.65;;
12956;SDS011;6543;48.836;10.092;2023-06-22T08:40:57;12.90;;;4.18;;
12956;SDS011;6543;48.836;10.092;2023-06-22T08:43:25;10.98;;;4.22;;
12956;SDS011;6543;48.836;10.092;2023-06-22T08:45:52;11.25;;;5.03;;
12956;SDS011;6543;48.836;10.092;2023-06-22T08:48:18;10.68;;;4.20;;
12956;SDS011;6543;48.836;10.092;2023-06-22T08:50:45;9.43;;;4.80;;
12956;SDS011;6543;48.836;10.092;2023-06-22T08:53:12;13.40;;;4.70;;
12956;SDS011;6543;48.836;10.092;2023-06-22T08:55:40;10.43;;;4.20;;
12956;SDS011;6543;48.836;10.092;2023-06-22T08:58:07;23.90;;;5.55;;
12956;SDS011;6543;48.836;10.092;2023-06-22T09:00:34;10.38;;;4.38;;
12956;SDS011;6543;48.836;10.092;2023-06-22T09:03:02;11.20;;;4.47;;
12956;SDS011;6543;48.836;10.092;2023-06-22T09:05:29;8.48;;;4.30;;
12956;SDS011;6543;48.836;10.092;2023-06-22T09:07:57;11.50;;;4.45;;
12956;SDS011;6543;48.836;10.092;2023-06-22T09:10:24;9.95;;;4.03;;
12956;SDS011;6543;48.836;10.092;2023-06-22T09:12:52;11.35;;;4.60;;
12956;SDS011;6543;48.836;10.092;2023-06-22T09:15:19;24.48;;;6.15;;
12956;SDS011;6543;48.836;10.092;2023-06-22T09:17:47;16.10;;;4.90;;
12956;SDS011;6543;48.836;10.092;2023-06-22T09:20:14;12.25;;;5.05;;
12956;SDS011;6543;48.836;10.092;2023-06-22T09:22:41;23.30;;;6.35;;
12956;SDS011;6543;48.836;10.092;2023-06-22T09:25:08;14.20;;;5.40;;
12956;SDS011;6543;48.836;10.092;2023-06-22T09:27:35;15.43;;;5.82;;
12956;SDS011;6543;48.836;10.092;2023-06-22T09:30:05;20.75;;;6.10;;
12956;SDS011;6543;48.836;10.092;2023-06-22T09:32:32;10.93;;;5.80;;
12956;SDS011;6543;48.836;10.092;2023-06-22T09:35:01;14.20;;;5.90;;
12956;SDS011;6543;48.836;10.092;2023-06-22T09:37:31;13.45;;;5.65;;
12956;SDS011;6543;48.836;10.092;2023-06-22T09:39:58;11.85;;;5.50;;
12956;SDS011;6543;48.836;10.092;2023-06-22T09:42:25;10.60;;;4.90;;
12956;SDS011;6543;48.836;10.092;2023-06-22T09:44:51;17.15;;;5.65;;
12956;SDS011;6543;48.836;10.092;2023-06-22T09:47:20;9.75;;;4.93;;
12956;SDS011;6543;48.836;10.092;2023-06-22T09:49:46;16.35;;;5.72;;
12956;SDS011;6543;48.836;10.092;2023-06-22T09:52:13;16.17;;;5.85;;
12956;SDS011;6543;48.836;10.092;2023-06-22T09:54:42;12.40;;;5.15;;
12956;SDS011;6543;48.836;10.092;2023-06-22T09:57:09;14.68;;;5.18;;
12956;SDS011;6543;48.836;10.092;2023-06-22T09:59:35;14.60;;;4.72;;
12956;SDS011;6543;48.836;10.092;2023-06-22T10:02:02;16.80;;;5.30;;
12956;SDS011;6543;48.836;10.092;2023-06-22T10:04:31;8.90;;;4.95;;
12956;SDS011;6543;48.836;10.092;2023-06-22T10:06:59;16.63;;;5.75;;
12956;SDS011;6543;48.836;10.092;2023-06-22T10:09:26;16.42;;;6.00;;
12956;SDS011;6543;48.836;10.092;2023-06-22T10:11:54;10.00;;;5.15;;
12956;SDS011;6543;48.836;10.092;2023-06-22T10:14:20;13.55;;;5.35;;
12956;SDS011;6543;48.836;10.092;2023-06-22T10:16:48;15.23;;;5.72;;
12956;SDS011;6543;48.836;10.092;2023-06-22T10:19:15;11.82;;;5.70;;
12956;SDS011;6543;48.836;10.092;2023-06-22T10:21:43;13.05;;;5.63;;
12956;SDS011;6543;48.836;10.092;2023-06-22T10:24:10;15.07;;;5.32;;
12956;SDS011;6543;48.836;10.092;2023-06-22T10:26:37;17.95;;;5.85;;
12956;SDS011;6543;48.836;10.092;2023-06-22T10:29:04;14.68;;;6.15;;
12956;SDS011;6543;48.836;10.092;2023-06-22T10:31:31;14.73;;;5.88;;
12956;SDS011;6543;48.836;10.092;2023-06-22T10:33:58;16.15;;;6.28;;
12956;SDS011;6543;48.836;10.092;2023-06-22T10:36:25;13.27;;;5.90;;
12956;SDS011;6543;48.836;10.092;2023-06-22T10:38:53;14.68;;;5.45;;
12956;SDS011;6543;48.836;10.092;2023-06-22T10:41:20;10.70;;;5.80;;
12956;SDS011;6543;48.836;10.092;2023-06-22T10:43:47;12.07;;;6.22;;
12956;SDS011;6543;48.836;10.092;2023-06-22T10:46:14;12.75;;;6.03;;
12956;SDS011;6543;48.836;10.092;2023-06-22T10:48:41;12.13;;;6.80;;
12956;SDS011;6543;48.836;10.092;2023-06-22T10:51:07;15.52;;;6.00;;
12956;SDS011;6543;48.836;10.092;2023-06-22T10:53:34;15.13;;;6.32;;
12956;SDS011;6543;48.836;10.092;2023-06-22T10:56:03;15.95;;;6.22;;
12956;SDS011;6543;48.836;10.092;2023-06-22T10:58:30;21.67;;;6.57;;
12956;SDS011;6543;48.836;10.092;2023-06-22T11:00:57;17.65;;;6.20;;
12956;SDS011;6543;48.836;10.092;2023-06-22T11:03:24;16.35;;;5.93;;
12956;SDS011;6543;48.836;10.092;2023-06-22T11:05:51;13.55;;;6.13;;
12956;SDS011;6543;48.836;10.092;2023-06-22T11:10:53;14.73;;;6.18;;
12956;SDS011;6543;48.836;10.092;2023-06-22T11:13:23;18.58;;;6.93;;
12956;SDS011;6543;48.836;10.092;2023-06-22T11:15:50;16.52;;;6.13;;
12956;SDS011;6543;48.836;10.092;2023-06-22T11:18:19;14.98;;;7.70;;
12956;SDS011;6543;48.836;10.092;2023-06-22T11:20:48;16.40;;;6.07;;
12956;SDS011;6543;48.836;10.092;2023-06-22T11:23:17;12.68;;;5.55;;
12956;SDS011;6543;48.836;10.092;2023-06-22T11:25:44;17.50;;;6.95;;
12956;SDS011;6543;48.836;10.092;2023-06-22T11:28:11;24.13;;;6.43;;
12956;SDS011;6543;48.836;10.092;2023-06-22T11:30:39;11.95;;;5.78;;
12956;SDS011;6543;48.836;10.092;2023-06-22T11:33:06;12.40;;;5.65;;
12956;SDS011;6543;48.836;10.092;2023-06-22T11:35:33;12.52;;;5.75;;
12956;SDS011;6543;48.836;10.092;2023-06-22T11:38:00;18.38;;;5.72;;
12956;SDS011;6543;48.836;10.092;2023-06-22T11:40:28;19.45;;;6.07;;
12956;SDS011;6543;48.836;10.092;2023-06-22T11:42:55;20.77;;;6.32;;
12956;SDS011;6543;48.836;10.092;2023-06-22T11:45:22;17.90;;;6.07;;
12956;SDS011;6543;48.836;10.092;2023-06-22T11:47:50;13.15;;;5.57;;
12956;SDS011;6543;48.836;10.092;2023-06-22T11:50:17;17.17;;;6.15;;
12956;SDS011;6543;48.836;10.092;2023-06-22T11:52:44;18.00;;;6.32;;
12956;SDS011;6543;48.836;10.092;2023-06-22T11:55:11;13.30;;;6.43;;
12956;SDS011;6543;48.836;10.092;2023-06-22T11:57:38;16.42;;;6.63;;
12956;SDS011;6543;48.836;10.092;2023-06-22T12:00:19;23.40;;;5.53;;
12956;SDS011;6543;48.836;10.092;2023-06-22T12:02:50;19.15;;;6.20;;
12956;SDS011;6543;48.836;10.092;2023-06-22T12:05:17;19.20;;;5.93;;
12956;SDS011;6543;48.836;10.092;2023-06-22T12:07:45;12.15;;;6.65;;
12956;SDS011;6543;48.836;10.092;2023-06-22T12:10:12;21.48;;;7.40;;
12956;SDS011;6543;48.836;10.092;2023-06-22T12:12:39;13.23;;;5.75;;
12956;SDS011;6543;48.836;10.092;2023-06-22T12:15:07;18.17;;;6.32;;
12956;SDS011;6543;48.836;10.092;2023-06-22T12:17:35;14.68;;;5.95;;
12956;SDS011;6543;48.836;10.092;2023-06-22T12:20:04;14.55;;;6.95;;
12956;SDS011;6543;48.836;10.092;2023-06-22T12:22:32;14.88;;;6.20;;
12956;SDS011;6543;48.836;10.092;2023-06-22T12:24:59;14.18;;;6.47;;
12956;SDS011;6543;48.836;10.092;2023-06-22T12:27:26;18.38;;;5.95;;
12956;SDS011;6543;48.836;10.092;2023-06-22T12:29:55;16.42;;;6.25;;
12956;SDS011;6543;48.836;10.092;2023-06-22T12:32:22;12.68;;;5.75;;
12956;SDS011;6543;48.836;10.092;2023-06-22T12:34:50;14.77;;;5.93;;
12956;SDS011;6543;48.836;10.092;2023-06-22T12:37:18;17.15;;;6.80;;
12956;SDS011;6543;48.836;10.092;2023-06-22T12:39:45;11.27;;;6.13;;
12956;SDS011;6543;48.836;10.092;2023-06-22T12:42:12;13.85;;;5.93;;
12956;SDS011;6543;48.836;10.092;2023-06-22T12:44:39;19.20;;;6.53;;
12956;SDS011;6543;48.836;10.092;2023-06-22T12:47:06;15.52;;;6.65;;
12956;SDS011;6543;48.836;10.092;2023-06-22T12:49:33;20.40;;;6.70;;
12956;SDS011;6543;48.836;10.092;2023-06-22T12:52:00;18.10;;;7.05;;
12956;SDS011;6543;48.836;10.092;2023-06-22T12:54:28;14.27;;;6.97;;
12956;SDS011;6543;48.836;10.092;2023-06-22T12:56:55;14.98;;;7.25;;
12956;SDS011;6543;48.836;10.092;2023-06-22T12:59:22;11.68;;;6.35;;
12956;SDS011;6543;48.836;10.092;2023-06-22T13:01:49;15.30;;;6.43;;
12956;SDS011;6543;48.836;10.092;2023-06-22T13:04:16;11.52;;;6.70;;
12956;SDS011;6543;48.836;10.092;2023-06-22T13:06:44;15.48;;;6.80;;
12956;SDS011;6543;48.836;10.092;2023-06-22T13:09:12;17.50;;;6.63;;
12956;SDS011;6543;48.836;10.092;2023-06-22T13:11:41;21.70;;;6.85;;
12956;SDS011;6543;48.836;10.092;2023-06-22T13:14:08;14.82;;;6.30;;
12956;SDS011;6543;48.836;10.092;2023-06-22T13:16:35;21.92;;;6.65;;
12956;SDS011;6543;48.836;10.092;2023-06-22T13:19:02;11.43;;;6.03;;
12956;SDS011;6543;48.836;10.092;2023-06-22T13:21:29;16.33;;;6.32;;
12956;SDS011;6543;48.836;10.092;2023-06-22T13:23:57;21.88;;;6.45;;
12956;SDS011;6543;48.836;10.092;2023-06-22T13:26:24;19.95;;;6.50;;
12956;SDS011;6543;48.836;10.092;2023-06-22T13:28:55;15.90;;;7.07;;
12956;SDS011;6543;48.836;10.092;2023-06-22T13:31:22;14.57;;;6.53;;
12956;SDS011;6543;48.836;10.092;2023-06-22T13:33:49;13.50;;;6.68;;
12956;SDS011;6543;48.836;10.092;2023-06-22T13:36:17;18.33;;;6.70;;
12956;SDS011;6543;48.836;10.092;2023-06-22T13:38:44;21.83;;;6.85;;
12956;SDS011;6543;48.836;10.092;2023-06-22T13:41:12;19.33;;;6.07;;
12956;SDS011;6543;48.836;10.092;2023-06-22T13:43:39;17.17;;;7.28;;
12956;SDS011;6543;48.836;10.092;2023-06-22T13:46:07;18.73;;;6.90;;
12956;SDS011;6543;48.836;10.092;2023-06-22T13:48:34;15.73;;;6.72;;
12956;SDS011;6543;48.836;10.092;2023-06-22T13:51:01;14.80;;;6.55;;
12956;SDS011;6543;48.836;10.092;2023-06-22T13:53:27;21.08;;;6.05;;
12956;SDS011;6543;48.836;10.092;2023-06-22T13:55:55;17.35;;;6.95;;
12956;SDS011;6543;48.836;10.092;2023-06-22T13:58:22;22.17;;;6.53;;
12956;SDS011;6543;48.836;10.092;2023-06-22T14:00:51;23.92;;;6.90;;
12956;SDS011;6543;48.836;10.092;2023-06-22T14:03:19;15.10;;;6.63;;
12956;SDS011;6543;48.836;10.092;2023-06-22T14:05:46;15.75;;;6.68;;
12956;SDS011;6543;48.836;10.092;2023-06-22T14:08:13;14.55;;;6.32;;
12956;SDS011;6543;48.836;10.092;2023-06-22T14:10:40;24.17;;;7.60;;
12956;SDS011;6543;48.836;10.092;2023-06-22T14:13:06;11.75;;;5.63;;
12956;SDS011;6543;48.836;10.092;2023-06-22T14:15:33;16.70;;;5.90;;
12956;SDS011;6543;48.836;10.092;2023-06-22T14:18:00;15.18;;;6.40;;
12956;SDS011;6543;48.836;10.092;2023-06-22T14:20:28;13.45;;;5.82;;
12956;SDS011;6543;48.836;10.092;2023-06-22T14:22:55;14.10;;;6.25;;
12956;SDS011;6543;48.836;10.092;2023-06-22T14:25:22;14.02;;;6.43;;
12956;SDS011;6543;48.836;10.092;2023-06-22T14:27:48;17.80;;;6.80;;
12956;SDS011;6543;48.836;10.092;2023-06-22T14:30:15;15.65;;;6.43;;
12956;SDS011;6543;48.836;10.092;2023-06-22T14:32:43;15.98;;;6.30;;
12956;SDS011;6543;48.836;10.092;2023-06-22T14:35:10;17.27;;;5.90;;
12956;SDS011;6543;48.836;10.092;2023-06-22T14:37:38;22.48;;;6.10;;
12956;SDS011;6543;48.836;10.092;2023-06-22T14:40:05;23.55;;;6.88;;
12956;SDS011;6543;48.836;10.092;2023-06-22T14:42:32;17.85;;;5.82;;